Time;durP1;ratioP1;P1;durP2;ratioP2;P2;SDS_P1;SDS_P2;PMS_P1;PMS_P2;Temp;Humidity;BMP_temperature;BMP_pressure;BME280_temperature;BME280_humidity;BME280_pressure;Samples;Min_cycle;Max_cycle;Signal;HPM_P1;HPM_P2
2022/02/13 00:02:15;;;;;;;14.32;5.40;;;;;;;2.54;66.84;101791.31;5037296;28;20033;-80
2022/02/13 00:04:40;;;;;;;15.77;6.10;;;;;;;2.51;66.76;101772.84;5038316;28;20067;-79
2022/02/13 00:07:05;;;;;;;13.15;5.30;;;;;;;2.54;66.84;101770.91;5020273;28;20037;-80
2022/02/13 00:09:31;;;;;;;15.27;6.25;;;;;;;2.58;66.90;101772.28;5037456;28;20025;-79
2022/02/13 00:12:00;;;;;;;14.30;5.90;;;;;;;2.43;67.26;101768.28;5019401;28;20028;-79
2022/02/13 00:14:26;;;;;;;12.07;5.80;;;;;;;2.32;68.00;101775.91;5019871;28;20132;-79
2022/02/13 00:16:52;;;;;;;13.93;5.97;;;;;;;2.37;68.24;101756.78;5035549;28;20041;-79
2022/02/13 00:19:17;;;;;;;15.85;6.20;;;;;;;2.37;67.84;101761.88;5018548;28;20108;-79
2022/02/13 00:21:44;;;;;;;13.68;5.63;;;;;;;2.33;68.19;101754.56;5034632;28;20124;-78
2022/02/13 00:24:09;;;;;;;13.65;5.53;;;;;;;2.28;68.05;101751.53;5035434;28;20025;-79
2022/02/13 00:26:36;;;;;;;13.38;5.53;;;;;;;2.30;67.99;101753.03;5035718;28;20136;-79
2022/02/13 00:29:01;;;;;;;17.42;6.38;;;;;;;2.20;69.43;101746.97;5034861;28;20029;-80
2022/02/13 00:31:26;;;;;;;15.15;6.05;;;;;;;2.24;68.93;101731.34;5018898;28;20574;-78
2022/02/13 00:33:51;;;;;;;13.75;5.97;;;;;;;2.21;68.69;101729.00;5036773;28;20443;-81
2022/02/13 00:36:17;;;;;;;13.40;5.85;;;;;;;2.16;68.88;101717.53;5037136;28;20044;-79
2022/02/13 00:38:42;;;;;;;12.57;5.88;;;;;;;2.18;68.83;101698.59;5019478;28;20445;-80
2022/02/13 00:41:07;;;;;;;11.55;6.22;;;;;;;2.12;69.24;101693.13;5036862;28;20036;-80
2022/02/13 00:43:32;;;;;;;13.30;5.93;;;;;;;2.12;69.53;101677.84;5019228;28;20021;-81
2022/02/13 00:45:58;;;;;;;12.02;6.10;;;;;;;2.06;69.42;101674.00;5019619;28;20018;-79
2022/02/13 00:48:23;;;;;;;14.27;6.38;;;;;;;2.02;69.52;101675.16;5037118;28;20369;-79
2022/02/13 00:50:48;;;;;;;14.18;6.20;;;;;;;2.09;69.32;101683.16;5035456;28;20109;-80
2022/02/13 00:53:14;;;;;;;11.55;5.63;;;;;;;2.01;69.12;101663.28;5035286;28;20030;-80
2022/02/13 00:55:39;;;;;;;16.63;6.78;;;;;;;2.14;69.49;101676.81;5036638;28;20025;-81
2022/02/13 00:58:04;;;;;;;13.55;6.18;;;;;;;2.10;69.50;101665.22;5036726;28;20376;-79
2022/02/13 01:00:29;;;;;;;13.73;5.82;;;;;;;2.01;69.55;101660.75;5018451;28;20026;-79
2022/02/13 01:02:55;;;;;;;11.55;6.10;;;;;;;1.83;70.58;101657.78;5036326;28;20163;-79
2022/02/13 01:05:20;;;;;;;14.25;6.53;;;;;;;2.01;69.74;101668.41;5018586;28;20032;-79
2022/02/13 01:07:45;;;;;;;12.95;6.05;;;;;;;2.00;70.18;101664.22;5018684;28;20032;-79
2022/02/13 01:10:11;;;;;;;14.05;6.68;;;;;;;1.89;70.52;101656.53;5018398;28;20136;-78
2022/02/13 01:12:36;;;;;;;13.75;6.80;;;;;;;1.93;70.51;101651.13;5035524;28;20369;-80
2022/02/13 01:15:02;;;;;;;11.43;6.25;;;;;;;1.99;70.40;101654.97;5018024;28;20082;-79
2022/02/13 01:17:27;;;;;;;15.80;6.60;;;;;;;1.92;70.71;101634.19;5036338;28;20158;-78
2022/02/13 01:19:53;;;;;;;12.20;6.00;;;;;;;1.87;70.80;101626.06;5035985;28;20471;-78
2022/02/13 01:22:18;;;;;;;15.05;6.63;;;;;;;1.95;70.89;101631.41;5035748;28;20049;-79
2022/02/13 01:24:43;;;;;;;15.05;6.50;;;;;;;1.92;70.95;101626.53;5018738;28;20111;-79
2022/02/13 01:27:09;;;;;;;12.73;6.00;;;;;;;1.97;70.60;101619.38;5036290;28;20064;-79
2022/02/13 01:29:34;;;;;;;15.35;5.50;;;;;;;1.97;70.90;101604.06;5001994;28;20037;-81
2022/02/13 01:32:00;;;;;;;14.57;6.35;;;;;;;1.92;71.33;101606.13;5036066;28;20021;-80
2022/02/13 01:34:27;;;;;;;15.35;6.72;;;;;;;1.93;71.29;101607.78;5018154;28;20105;-80
2022/02/13 01:36:52;;;;;;;14.23;6.25;;;;;;;1.94;71.41;101606.84;5035701;28;20025;-81
2022/02/13 01:39:17;;;;;;;13.68;6.50;;;;;;;1.94;71.32;101583.09;5018565;28;20029;-80
2022/02/13 01:41:48;;;;;;;14.77;6.15;;;;;;;2.09;70.95;101597.28;5018172;28;20029;-79
2022/02/13 01:44:23;;;;;;;14.70;5.85;;;;;;;2.08;70.93;101593.09;5018637;28;20022;-80
2022/02/13 01:46:48;;;;;;;21.48;6.95;;;;;;;1.97;71.04;101580.31;5034255;28;20428;-80
2022/02/13 01:49:13;;;;;;;14.93;6.00;;;;;;;1.99;71.45;101578.50;5035633;28;20028;-80
2022/02/13 01:51:39;;;;;;;17.02;6.88;;;;;;;2.02;71.18;101593.56;5017585;28;20071;-80
2022/02/13 01:54:04;;;;;;;17.92;6.57;;;;;;;1.99;71.23;101588.69;5035406;28;20025;-80
2022/02/13 01:56:29;;;;;;;10.57;5.85;;;;;;;1.95;71.58;101587.25;5034854;28;20461;-78
2022/02/13 01:58:54;;;;;;;12.30;6.07;;;;;;;1.98;71.66;101584.50;5033751;28;20032;-80
2022/02/13 02:01:20;;;;;;;16.83;6.65;;;;;;;1.86;72.12;101577.72;5017294;28;20161;-79
2022/02/13 02:03:45;;;;;;;9.93;5.25;;;;;;;1.88;72.66;101575.91;5017403;28;20044;-79
2022/02/13 02:06:11;;;;;;;15.23;6.63;;;;;;;1.88;72.10;101569.06;5035097;28;20021;-79
2022/02/13 02:08:36;;;;;;;14.15;6.32;;;;;;;1.85;71.99;101574.38;5036446;28;20027;-79
2022/02/13 02:11:01;;;;;;;13.20;6.47;;;;;;;1.95;71.94;101574.50;5035732;28;20122;-79
2022/02/13 02:13:26;;;;;;;14.02;6.72;;;;;;;2.00;71.75;101557.16;5035651;28;20048;-80
2022/02/13 02:15:52;;;;;;;15.18;6.07;;;;;;;1.90;72.68;101563.84;5035370;28;20443;-80
2022/02/13 02:18:17;;;;;;;14.65;5.70;;;;;;;1.83;72.32;101566.03;5018603;28;20017;-79
2022/02/13 02:20:42;;;;;;;12.05;5.55;;;;;;;1.84;71.75;101560.00;5018743;28;20364;-80
2022/02/13 02:23:08;;;;;;;13.90;6.13;;;;;;;1.92;72.10;101565.34;5019401;28;20508;-79
2022/02/13 02:25:34;;;;;;;13.85;6.20;;;;;;;1.81;72.32;101537.28;5037410;28;20029;-80
2022/02/13 02:28:00;;;;;;;12.38;5.93;;;;;;;1.75;72.34;101542.81;5035720;28;20476;-79
2022/02/13 02:30:25;;;;;;;11.82;6.10;;;;;;;1.76;72.47;101557.22;5019396;28;20056;-79
2022/02/13 02:32:50;;;;;;;16.35;6.53;;;;;;;1.82;72.46;101544.03;5019585;28;20392;-79
2022/02/13 02:35:16;;;;;;;13.32;6.10;;;;;;;1.86;72.27;101545.41;5017777;28;20045;-78
2022/02/13 02:37:42;;;;;;;13.68;6.32;;;;;;;1.79;72.49;101529.75;5036755;28;20071;-79
2022/02/13 02:40:08;;;;;;;9.98;5.55;;;;;;;1.71;72.44;101538.88;5002699;28;20026;-80
2022/02/13 02:42:33;;;;;;;11.90;5.93;;;;;;;1.70;72.57;101525.34;5019312;28;20044;-80
2022/02/13 02:44:58;;;;;;;19.00;6.55;;;;;;;1.81;72.09;101519.44;5036942;28;20033;-79
2022/02/13 02:47:24;;;;;;;14.70;5.95;;;;;;;1.77;72.81;101515.50;5036538;28;20052;-80
2022/02/13 02:49:49;;;;;;;15.32;5.72;;;;;;;1.76;72.41;101504.50;5035368;28;20029;-80
2022/02/13 02:52:18;;;;;;;12.25;5.97;;;;;;;1.72;72.77;101504.81;5036763;28;20026;-80
2022/02/13 02:54:43;;;;;;;14.75;5.15;;;;;;;1.70;72.44;101507.50;5037080;28;20591;-80
2022/02/13 02:57:08;;;;;;;13.65;5.45;;;;;;;1.70;72.63;101494.75;5019232;28;20033;-80
2022/02/13 02:59:34;;;;;;;12.45;6.30;;;;;;;1.79;72.03;101473.69;5037099;28;20041;-80
2022/02/13 03:01:59;;;;;;;12.50;5.75;;;;;;;1.76;72.15;101478.22;5037383;28;20468;-80
2022/02/13 03:04:24;;;;;;;14.32;6.20;;;;;;;1.77;72.37;101485.72;5019634;28;20532;-79
2022/02/13 03:06:50;;;;;;;13.88;5.78;;;;;;;1.77;72.23;101474.72;5036547;28;20025;-79
2022/02/13 03:09:15;;;;;;;12.27;6.20;;;;;;;1.64;72.55;101463.78;5037742;28;20085;-79
2022/02/13 03:11:40;;;;;;;11.25;6.00;;;;;;;1.64;73.07;101462.06;5035979;28;20033;-79
2022/02/13 03:14:07;;;;;;;11.98;5.90;;;;;;;1.72;72.22;101448.75;5036287;28;20452;-78
2022/02/13 03:16:32;;;;;;;12.73;6.05;;;;;;;1.72;72.74;101447.00;5036908;28;20049;-78
2022/02/13 03:18:57;;;;;;;11.18;5.95;;;;;;;1.66;72.70;101459.41;5019497;28;20033;-78
2022/02/13 03:21:23;;;;;;;12.05;6.28;;;;;;;1.65;72.39;101452.69;5035092;28;20085;-78
2022/02/13 03:23:48;;;;;;;10.68;4.93;;;;;;;1.50;72.93;101437.59;5052668;28;20021;-80
2022/02/13 03:26:13;;;;;;;13.05;6.07;;;;;;;1.59;72.42;101436.13;5053432;28;20033;-78
2022/02/13 03:28:39;;;;;;;15.38;6.22;;;;;;;1.69;72.21;101456.63;5053129;28;20036;-79
2022/02/13 03:31:04;;;;;;;13.98;5.85;;;;;;;1.60;72.84;101442.03;5053610;28;20017;-79
2022/02/13 03:33:30;;;;;;;14.35;6.20;;;;;;;1.61;72.78;101441.09;5036262;28;20013;-79
2022/02/13 03:35:55;;;;;;;11.68;6.47;;;;;;;1.58;72.66;101435.31;5054563;28;20049;-81
2022/02/13 03:38:20;;;;;;;11.75;5.95;;;;;;;1.56;72.38;101421.06;5037436;28;20057;-79
2022/02/13 03:40:47;;;;;;;12.88;6.13;;;;;;;1.55;72.78;101422.81;5054892;28;20121;-79
2022/02/13 03:43:12;;;;;;;15.20;6.43;;;;;;;1.57;72.63;101415.03;5038381;28;20037;-79
2022/02/13 03:45:38;;;;;;;12.10;5.82;;;;;;;1.45;73.19;101408.28;5056782;28;20026;-79
2022/02/13 03:48:04;;;;;;;12.13;5.78;;;;;;;1.54;72.65;101418.59;5058732;28;20070;-78
2022/02/13 03:50:30;;;;;;;16.95;5.63;;;;;;;1.51;72.67;101425.66;5059206;28;20049;-77
2022/02/13 03:52:56;;;;;;;13.85;6.03;;;;;;;1.65;72.38;101434.84;5059680;28;20057;-79
2022/02/13 03:55:21;;;;;;;11.30;5.45;;;;;;;1.64;72.71;101435.75;5059406;28;20030;-78
2022/02/13 03:57:46;;;;;;;11.38;5.45;;;;;;;1.50;73.85;101435.06;5060386;28;20073;-78
2022/02/13 04:00:15;;;;;;;9.88;5.65;;;;;;;1.53;73.00;101437.38;5043138;28;20093;-78
2022/02/13 04:02:41;;;;;;;13.30;6.10;;;;;;;1.67;72.62;101433.81;5043194;28;20025;-77
2022/02/13 04:05:07;;;;;;;12.88;5.97;;;;;;;1.61;72.48;101425.78;5043554;28;20021;-78
2022/02/13 04:07:33;;;;;;;22.35;6.03;;;;;;;1.57;72.91;101417.56;5043243;28;20026;-78
2022/02/13 04:09:58;;;;;;;14.63;6.15;;;;;;;1.66;72.96;101421.19;5060413;28;20024;-77
2022/02/13 04:12:24;;;;;;;16.90;6.72;;;;;;;1.59;72.81;101410.66;5060925;28;20024;-78
2022/02/13 04:14:51;;;;;;;13.77;5.68;;;;;;;1.53;72.80;101416.19;5060886;28;20060;-79
2022/02/13 04:17:16;;;;;;;16.05;6.00;;;;;;;1.54;72.92;101412.72;5060577;28;20006;-78
2022/02/13 04:19:42;;;;;;;15.35;5.80;;;;;;;1.49;73.38;101413.03;5060751;28;20033;-78
2022/02/13 04:22:07;;;;;;;11.60;5.72;;;;;;;1.52;73.90;101412.00;5043769;28;20013;-78
2022/02/13 04:24:32;;;;;;;13.02;5.78;;;;;;;1.58;72.96;101417.47;5060788;28;20045;-78
2022/02/13 04:26:58;;;;;;;12.38;5.55;;;;;;;1.40;73.55;101395.88;5060627;28;20021;-78
2022/02/13 04:29:23;;;;;;;12.90;5.47;;;;;;;1.46;73.02;101402.25;5060730;28;20041;-79
2022/02/13 04:31:48;;;;;;;12.27;5.60;;;;;;;1.53;73.31;101411.09;5060342;28;20006;-79
2022/02/13 04:34:13;;;;;;;11.13;5.88;;;;;;;1.45;72.98;101404.00;5060329;28;20041;-78
2022/02/13 04:36:39;;;;;;;10.30;5.72;;;;;;;1.40;73.58;101411.16;5043312;28;20025;-79
2022/02/13 04:39:05;;;;;;;11.43;5.50;;;;;;;1.47;73.46;101414.91;5059419;28;20021;-79
2022/02/13 04:41:30;;;;;;;13.85;5.85;;;;;;;1.50;73.05;101411.31;5060312;28;20041;-78
2022/02/13 04:43:56;;;;;;;16.60;6.43;;;;;;;1.43;73.20;101405.03;5060511;28;20016;-79
2022/02/13 04:46:21;;;;;;;16.77;6.35;;;;;;;1.32;73.57;101398.16;5042862;28;20036;-79
2022/02/13 04:48:46;;;;;;;11.85;5.57;;;;;;;1.32;73.72;101401.56;5059999;28;20022;-79
2022/02/13 04:51:11;;;;;;;14.02;6.45;;;;;;;1.30;74.41;101400.03;5042734;28;20040;-79
2022/02/13 04:53:37;;;;;;;13.15;5.60;;;;;;;1.33;73.65;101399.81;5042759;28;20101;-79
2022/02/13 04:56:04;;;;;;;14.27;5.95;;;;;;;1.45;73.02;101396.38;5059591;28;20025;-79
2022/02/13 04:58:30;;;;;;;11.52;6.20;;;;;;;1.38;73.35;101395.19;5040743;28;20052;-78
2022/02/13 05:00:56;;;;;;;13.63;5.30;;;;;;;1.37;73.44;101397.84;5044815;28;20026;-79
2022/02/13 05:03:23;;;;;;;11.13;5.57;;;;;;;1.22;74.28;101387.84;5024874;28;20022;-80
2022/02/13 05:05:48;;;;;;;12.82;5.90;;;;;;;1.31;73.67;101387.19;5024902;28;20477;-80
2022/02/13 05:08:13;;;;;;;10.82;5.75;;;;;;;1.47;73.45;101383.53;5023578;28;20025;-78
2022/02/13 05:10:38;;;;;;;8.23;5.32;;;;;;;1.38;73.91;101379.09;5040824;28;20055;-77
2022/02/13 05:13:04;;;;;;;13.02;6.18;;;;;;;1.30;73.90;101383.03;5023514;28;20025;-79
2022/02/13 05:15:29;;;;;;;11.93;5.72;;;;;;;1.25;74.34;101362.16;5022707;28;20057;-78
2022/02/13 05:17:55;;;;;;;11.57;5.40;;;;;;;1.31;74.17;101374.44;5022088;28;20033;-78
2022/02/13 05:20:20;;;;;;;13.00;5.85;;;;;;;1.29;73.87;101362.75;5039252;28;20108;-79
2022/02/13 05:22:45;;;;;;;11.80;5.90;;;;;;;1.26;74.10;101358.69;5022416;28;20025;-79
2022/02/13 05:25:10;;;;;;;11.63;5.90;;;;;;;1.23;74.40;101360.66;5020788;28;20400;-79
2022/02/13 05:27:36;;;;;;;11.70;5.90;;;;;;;1.22;74.34;101359.84;5038876;28;20075;-78
2022/02/13 05:30:01;;;;;;;11.93;6.00;;;;;;;1.23;73.91;101358.09;5021333;28;20104;-79
2022/02/13 05:32:28;;;;;;;15.18;6.32;;;;;;;1.18;74.00;101345.72;5038550;28;20427;-78
2022/02/13 05:34:53;;;;;;;10.77;5.47;;;;;;;1.24;74.56;101358.00;5038378;28;20053;-78
2022/02/13 05:37:18;;;;;;;12.52;5.25;;;;;;;1.33;74.46;101354.78;5036968;28;20025;-79
2022/02/13 05:39:44;;;;;;;14.18;5.75;;;;;;;1.10;74.73;101333.53;5037259;28;20029;-79
2022/02/13 05:42:10;;;;;;;14.07;5.78;;;;;;;1.35;74.01;101336.81;5019801;28;20025;-78
2022/02/13 05:44:35;;;;;;;14.30;6.18;;;;;;;1.29;74.40;101333.00;5019927;28;20116;-79
2022/02/13 05:47:01;;;;;;;12.63;5.68;;;;;;;1.30;74.46;101334.63;5036677;28;20025;-80
2022/02/13 05:49:27;;;;;;;15.35;5.80;;;;;;;1.26;74.64;101327.31;5036488;28;20104;-79
2022/02/13 05:51:54;;;;;;;12.18;6.28;;;;;;;1.27;74.11;101311.94;5036464;28;20029;-81
2022/02/13 05:54:19;;;;;;;9.82;5.32;;;;;;;1.30;74.43;101318.56;5018555;28;20504;-79
2022/02/13 05:56:44;;;;;;;12.05;5.95;;;;;;;1.28;74.19;101313.56;5018554;28;20029;-79
2022/02/13 05:59:12;;;;;;;14.30;5.90;;;;;;;1.39;74.55;101306.88;5017327;28;20071;-79
2022/02/13 06:01:37;;;;;;;11.85;5.90;;;;;;;1.34;74.28;101300.38;5017847;28;20542;-78
2022/02/13 06:04:02;;;;;;;11.65;5.80;;;;;;;1.29;74.74;101296.53;5017409;28;20045;-79
2022/02/13 06:06:28;;;;;;;11.30;5.35;;;;;;;1.34;74.49;101309.75;5018138;28;20029;-79
2022/02/13 06:08:53;;;;;;;13.65;6.18;;;;;;;1.45;74.34;101301.31;5035625;28;20029;-78
2022/02/13 06:11:18;;;;;;;10.82;5.60;;;;;;;1.38;74.47;101303.50;5017779;28;20108;-79
2022/02/13 06:13:44;;;;;;;13.07;5.97;;;;;;;1.42;74.40;101292.16;5035301;28;20057;-79
2022/02/13 06:16:09;;;;;;;10.77;5.45;;;;;;;1.50;73.91;101294.97;5017643;28;20028;-79
2022/02/13 06:18:34;;;;;;;10.30;5.90;;;;;;;1.53;73.97;101302.38;5034998;28;20029;-79
2022/02/13 06:21:01;;;;;;;13.85;5.90;;;;;;;1.61;73.24;101301.78;5017638;28;20032;-78
2022/02/13 06:23:26;;;;;;;11.40;5.20;;;;;;;1.55;73.69;101299.69;5017237;28;20392;-80
2022/02/13 06:25:52;;;;;;;13.25;5.97;;;;;;;1.58;73.78;101294.34;5017098;28;20033;-79
2022/02/13 06:28:17;;;;;;;12.85;5.80;;;;;;;1.33;74.37;101269.94;5033476;28;20394;-79
2022/02/13 06:30:43;;;;;;;10.15;5.85;;;;;;;1.43;74.22;101282.78;5034713;28;20030;-78
2022/02/13 06:33:09;;;;;;;13.43;5.50;;;;;;;1.67;73.77;101288.59;5034761;28;20013;-79
2022/02/13 06:35:35;;;;;;;11.95;5.70;;;;;;;1.60;73.45;101274.69;5017467;28;20052;-79
2022/02/13 06:38:03;;;;;;;10.13;5.63;;;;;;;1.71;73.33;101277.22;5033219;28;20033;-80
2022/02/13 06:40:29;;;;;;;11.15;5.60;;;;;;;1.66;73.31;101284.41;5034309;28;20108;-78
2022/02/13 06:42:54;;;;;;;10.32;5.82;;;;;;;1.64;73.77;101267.59;5017192;28;20427;-79
2022/02/13 06:45:19;;;;;;;10.27;5.47;;;;;;;1.58;73.71;101268.88;5016665;28;20063;-80
2022/02/13 06:47:45;;;;;;;11.65;5.82;;;;;;;1.69;73.33;101266.34;5035646;28;20079;-80
2022/02/13 06:50:11;;;;;;;10.80;5.55;;;;;;;1.84;73.29;101266.88;5017007;28;20045;-80
2022/02/13 06:52:37;;;;;;;10.25;5.35;;;;;;;1.71;73.08;101277.22;5017210;28;20028;-80
2022/02/13 06:55:03;;;;;;;11.52;5.40;;;;;;;1.73;73.59;101283.03;5017241;28;20029;-79
2022/02/13 06:57:28;;;;;;;9.77;5.70;;;;;;;1.60;74.11;101266.22;5017124;28;20052;-79
2022/02/13 06:59:53;;;;;;;12.13;6.03;;;;;;;1.64;73.56;101268.44;5002272;28;20080;-79
2022/02/13 07:02:19;;;;;;;13.25;5.75;;;;;;;1.59;73.64;101260.34;5018880;28;20477;-81
2022/02/13 07:04:44;;;;;;;11.65;5.78;;;;;;;1.56;73.70;101263.91;5035209;28;20032;-79
2022/02/13 07:07:09;;;;;;;9.70;5.47;;;;;;;1.50;74.39;101263.59;5034920;28;20029;-79
2022/02/13 07:09:35;;;;;;;11.98;5.78;;;;;;;1.55;75.05;101264.03;5033877;28;20384;-79
2022/02/13 07:12:05;;;;;;;10.98;5.40;;;;;;;1.54;74.07;101250.47;5000644;28;20621;-80
2022/02/13 07:14:37;;;;;;;11.88;5.30;;;;;;;1.54;74.31;101260.66;5034759;28;20021;-79
2022/02/13 07:17:03;;;;;;;13.23;5.93;;;;;;;1.68;74.19;101269.00;5017106;28;20052;-80
2022/02/13 07:19:28;;;;;;;10.88;5.55;;;;;;;1.49;74.62;101254.31;5035145;28;20029;-79
2022/02/13 07:21:53;;;;;;;11.10;5.45;;;;;;;1.57;74.18;101265.53;5037819;28;20071;-80
2022/02/13 07:24:19;;;;;;;11.15;5.93;;;;;;;1.53;74.59;101241.22;5038456;28;20451;-78
2022/02/13 07:26:45;;;;;;;11.40;5.78;;;;;;;1.77;73.76;101246.19;5037967;28;20035;-79
2022/02/13 07:29:10;;;;;;;12.05;5.75;;;;;;;1.73;73.91;101234.63;5020539;28;20392;-80
2022/02/13 07:31:36;;;;;;;12.07;5.47;;;;;;;1.78;73.58;101244.44;5038029;28;20083;-80
2022/02/13 07:34:03;;;;;;;10.98;5.50;;;;;;;1.85;73.33;101232.84;5038312;28;20392;-79
2022/02/13 07:36:29;;;;;;;14.45;5.35;;;;;;;1.93;73.15;101240.72;5021046;28;20057;-79
2022/02/13 07:38:55;;;;;;;9.55;5.13;;;;;;;1.93;73.11;101235.63;5020925;28;20033;-79
2022/02/13 07:41:20;;;;;;;16.15;5.82;;;;;;;1.92;73.53;101235.72;5021177;28;20392;-79
2022/02/13 07:43:46;;;;;;;11.90;5.38;;;;;;;1.92;73.03;101235.72;5020686;28;20109;-80
2022/02/13 07:46:11;;;;;;;11.98;5.18;;;;;;;1.97;73.09;101236.19;5020951;28;20051;-80
2022/02/13 07:48:37;;;;;;;11.38;5.95;;;;;;;2.11;72.62;101246.13;5037648;28;20036;-79
2022/02/13 07:51:02;;;;;;;15.73;5.95;;;;;;;2.09;73.00;101249.72;5020482;28;20078;-79
2022/02/13 07:53:28;;;;;;;8.60;5.15;;;;;;;2.25;72.28;101245.03;5038247;28;20061;-79
2022/02/13 07:55:53;;;;;;;12.95;5.93;;;;;;;2.34;72.09;101240.94;5042319;28;20492;-80
2022/02/13 07:58:19;;;;;;;10.27;5.43;;;;;;;2.29;72.12;101240.50;5023615;28;20037;-79
2022/02/13 08:00:44;;;;;;;11.07;5.72;;;;;;;2.24;72.63;101239.13;5025995;28;20025;-78
2022/02/13 08:03:09;;;;;;;16.63;6.25;;;;;;;2.25;72.48;101250.13;5027735;28;20025;-79
2022/02/13 08:05:35;;;;;;;10.15;5.63;;;;;;;2.26;72.55;101246.63;5045453;28;20025;-80
2022/02/13 08:08:00;;;;;;;10.93;5.47;;;;;;;2.34;71.78;101239.19;5044047;28;20017;-79
2022/02/13 08:10:26;;;;;;;12.60;6.07;;;;;;;2.35;72.07;101240.00;5044112;28;20531;-78
2022/02/13 08:12:51;;;;;;;11.30;5.75;;;;;;;2.34;71.93;101223.91;5052145;28;20034;-79
2022/02/13 08:15:17;;;;;;;13.90;5.72;;;;;;;2.37;72.08;101222.84;5047551;28;20467;-79
2022/02/13 08:17:42;;;;;;;11.25;5.30;;;;;;;2.33;71.98;101219.72;5040543;28;20424;-78
2022/02/13 08:20:13;;;;;;;11.77;5.82;;;;;;;2.47;72.08;101222.00;5022826;28;20075;-79
2022/02/13 08:22:39;;;;;;;12.48;5.38;;;;;;;2.51;71.58;101214.91;5025328;28;20444;-79
2022/02/13 08:25:05;;;;;;;12.75;5.60;;;;;;;2.65;71.38;101221.44;5046098;28;20005;-79
2022/02/13 08:27:30;;;;;;;11.80;5.70;;;;;;;2.64;71.31;101218.06;5030506;28;20036;-79
2022/02/13 08:29:56;;;;;;;11.65;5.75;;;;;;;2.74;70.64;101220.69;5025166;28;20090;-79
2022/02/13 08:32:25;;;;;;;11.85;5.60;;;;;;;2.71;70.73;101226.03;5040647;28;20026;-80
2022/02/13 08:34:53;;;;;;;13.90;5.80;;;;;;;2.78;70.43;101211.84;5042417;28;20531;-79
2022/02/13 08:37:19;;;;;;;11.63;5.50;;;;;;;2.91;70.74;101201.44;5026324;28;20025;-79
2022/02/13 08:39:44;;;;;;;13.13;5.82;;;;;;;3.02;69.87;101193.72;5025383;28;20051;-80
2022/02/13 08:42:09;;;;;;;8.40;5.47;;;;;;;3.04;69.92;101202.03;5026164;28;20045;-77
2022/02/13 08:44:35;;;;;;;8.80;5.35;;;;;;;3.10;69.58;101196.41;5040153;28;20022;-79
2022/02/13 08:47:00;;;;;;;15.35;6.07;;;;;;;2.98;70.37;101187.22;5038075;28;20379;-79
2022/02/13 08:49:26;;;;;;;11.57;5.68;;;;;;;3.00;70.43;101176.91;5036684;28;20030;-80
2022/02/13 08:51:51;;;;;;;9.90;5.53;;;;;;;3.09;70.06;101187.13;5037268;28;20049;-78
2022/02/13 08:54:16;;;;;;;10.35;6.00;;;;;;;3.19;69.84;101164.19;5036125;28;20448;-79
2022/02/13 08:56:42;;;;;;;11.48;6.03;;;;;;;3.21;69.16;101166.63;5037081;28;20066;-80
2022/02/13 08:59:07;;;;;;;12.20;5.80;;;;;;;3.25;69.79;101162.84;5037179;28;20021;-80
2022/02/13 09:01:32;;;;;;;10.63;5.65;;;;;;;3.22;69.20;101156.25;5036786;28;20040;-79
2022/02/13 09:03:58;;;;;;;9.65;5.47;;;;;;;3.24;69.50;101149.28;5019695;28;20018;-79
2022/02/13 09:06:23;;;;;;;10.25;5.35;;;;;;;3.53;69.29;101148.53;5036988;28;20104;-79
2022/02/13 09:08:49;;;;;;;10.82;5.57;;;;;;;3.39;68.77;101157.38;5037055;28;20021;-81
2022/02/13 09:11:15;;;;;;;9.02;5.40;;;;;;;3.48;68.66;101151.50;5043191;28;20035;-79
2022/02/13 09:13:40;;;;;;;12.35;5.78;;;;;;;3.48;68.38;101135.34;5036404;28;20018;-81
2022/02/13 09:16:06;;;;;;;11.90;5.50;;;;;;;3.47;68.93;101142.22;5035352;28;20025;-79
2022/02/13 09:18:31;;;;;;;9.25;5.63;;;;;;;3.56;68.88;101138.06;5035546;28;20079;-79
2022/02/13 09:20:56;;;;;;;10.25;5.68;;;;;;;3.67;68.83;101132.03;5000395;28;20469;-79
2022/02/13 09:23:23;;;;;;;9.30;5.65;;;;;;;3.67;68.11;101119.25;5047885;28;20052;-80
2022/02/13 09:25:50;;;;;;;9.15;5.43;;;;;;;3.59;68.58;101110.47;5019389;28;20029;-81
2022/02/13 09:28:16;;;;;;;9.65;5.78;;;;;;;3.81;67.69;101129.06;5051890;28;20017;-79
2022/02/13 09:30:46;;;;;;;11.07;5.70;;;;;;;3.75;67.79;101125.31;5026139;28;20029;-76
2022/02/13 09:33:11;;;;;;;11.60;5.72;;;;;;;3.88;68.26;101127.59;5034587;28;20480;-79
2022/02/13 09:35:38;;;;;;;10.93;5.53;;;;;;;3.87;67.77;101128.53;5036105;28;20053;-80
2022/02/13 09:38:04;;;;;;;9.38;5.35;;;;;;;4.01;66.80;101129.88;5035624;28;20026;-79
2022/02/13 09:40:33;;;;;;;13.52;4.97;;;;;;;4.10;67.64;101128.28;4985340;28;20051;-80
2022/02/13 09:43:03;;;;;;;12.27;5.90;;;;;;;4.18;67.39;101129.19;5017280;28;20034;-79
2022/02/13 09:45:30;;;;;;;11.00;5.93;;;;;;;4.32;66.82;101120.31;5034513;28;20021;-79
2022/02/13 09:47:58;;;;;;;11.23;5.82;;;;;;;4.65;65.70;101120.75;5035549;28;20025;-80
2022/02/13 09:50:24;;;;;;;10.60;5.45;;;;;;;5.20;63.96;101101.09;5035648;28;20063;-79
2022/02/13 09:52:54;;;;;;;11.05;5.55;;;;;;;5.23;63.20;101110.25;5017241;28;20026;-80
2022/02/13 09:55:20;;;;;;;11.40;5.88;;;;;;;6.85;59.17;101101.41;5033807;28;20029;-80
2022/02/13 09:58:03;;;;;;;11.20;5.55;;;;;;;7.09;58.17;101100.66;5017698;28;20099;-80
2022/02/13 10:00:50;;;;;;;9.70;5.25;;;;;;;7.94;54.54;101103.06;5020682;28;20038;-81
2022/02/13 10:03:49;;;;;;;11.25;5.65;;;;;;;8.61;52.12;101096.84;5035139;28;20082;-81
2022/02/13 10:06:15;;;;;;;10.15;5.60;;;;;;;10.84;47.51;101094.81;4976953;28;20064;-81
2022/02/13 10:08:41;;;;;;;9.57;5.22;;;;;;;11.18;46.04;101082.25;5034811;28;20037;-81
2022/02/13 10:11:14;;;;;;;10.65;4.57;;;;;;;10.07;47.99;101089.97;5017972;28;20013;-80
2022/02/13 10:13:55;;;;;;;8.80;5.28;;;;;;;10.53;47.09;101104.53;5017002;28;20037;-80
2022/02/13 10:16:30;;;;;;;8.95;5.20;;;;;;;11.24;45.39;101082.31;5034645;28;20380;-80
2022/02/13 10:19:05;;;;;;;16.58;5.45;;;;;;;11.75;43.96;101077.00;5034369;28;20474;-80
2022/02/13 10:21:47;;;;;;;9.73;5.20;;;;;;;11.75;43.77;101073.63;5034243;28;20052;-81
2022/02/13 10:24:20;;;;;;;10.23;5.30;;;;;;;12.55;42.72;101077.56;5035200;28;20072;-81
2022/02/13 10:27:11;;;;;;;10.10;5.15;;;;;;;12.55;41.39;101074.16;5033934;28;20036;-81
2022/02/13 10:29:44;;;;;;;10.05;5.00;;;;;;;13.75;39.47;101075.22;5002222;28;20511;-80
2022/02/13 10:32:22;;;;;;;9.35;5.45;;;;;;;12.41;42.05;101088.84;5014725;28;20017;-79
2022/02/13 10:35:08;;;;;;;7.82;5.20;;;;;;;13.27;41.17;101096.19;5031593;28;20060;-80
2022/02/13 10:37:58;;;;;;;10.07;5.30;;;;;;;12.08;42.01;101075.69;5032412;28;20029;-80
2022/02/13 10:40:31;;;;;;;7.50;4.95;;;;;;;12.21;42.61;101072.38;5016067;28;20037;-81
2022/02/13 10:43:09;;;;;;;8.90;5.15;;;;;;;13.00;41.10;101062.34;5031956;28;20017;-81
2022/02/13 10:45:39;;;;;;;9.60;4.85;;;;;;;13.10;40.73;101055.00;5035005;28;20431;-81
2022/02/13 10:48:07;;;;;;;8.95;5.50;;;;;;;13.23;40.57;101051.59;5016785;28;20021;-80
2022/02/13 10:50:35;;;;;;;11.05;5.57;;;;;;;12.20;42.31;101043.09;5035509;28;20018;-81
2022/02/13 10:53:03;;;;;;;8.68;5.07;;;;;;;12.49;42.64;101049.00;5034665;28;20025;-82
2022/02/13 10:55:30;;;;;;;8.45;5.10;;;;;;;13.09;40.21;101043.03;5034077;28;20029;-81
2022/02/13 10:57:58;;;;;;;14.98;5.85;;;;;;;11.96;42.97;101052.09;5017273;28;20060;-82
2022/02/13 11:00:23;;;;;;;8.93;5.13;;;;;;;13.69;39.58;101034.50;5016667;28;20079;-80
2022/02/13 11:02:50;;;;;;;10.07;5.60;;;;;;;12.82;40.59;101036.16;5034140;28;20025;-82
2022/02/13 11:05:19;;;;;;;8.07;5.38;;;;;;;12.16;42.39;101037.47;5016044;28;20476;-81
2022/02/13 11:07:48;;;;;;;10.45;5.80;;;;;;;14.41;38.40;101028.34;5032722;28;20034;-80
2022/02/13 11:10:30;;;;;;;12.88;5.78;;;;;;;14.84;37.32;101025.16;5016113;28;20124;-80
2022/02/13 11:12:55;;;;;;;8.88;5.75;;;;;;;14.72;36.94;101013.81;5016322;28;20388;-81
2022/02/13 11:15:31;;;;;;;11.10;5.65;;;;;;;12.91;39.70;101003.84;5032983;28;20021;-80
2022/02/13 11:18:08;;;;;;;9.60;5.05;;;;;;;11.43;43.41;101008.47;5033842;28;20130;-80
2022/02/13 11:20:35;;;;;;;8.35;5.25;;;;;;;11.87;42.28;100991.88;5033856;28;20029;-80
2022/02/13 11:23:21;;;;;;;10.32;5.47;;;;;;;12.77;40.38;100990.06;5016892;28;20056;-80